DLH612 EDDF-UBBB
Flight info
| Callsign | DLH612 |
|---|---|
| Flight time | N/A |
| Altitude | 31000 |
| Route | CINDY8S CINDY Z74 HAREM DCT ASLEP DCT TAKUT DCT DINKU L603 BESNI/N0429F370 L605 MIQ DCT ALUTU DCT BIBAG L605 ESEGA DCT SUNIS DCT INVED DCT LUGEB DCT UDROS UN743 GAKSU UT310 SIN UN644 KARDE UL851 TOLUN/N0435F390 UL851 TBN UR317 REBLO DCT PEMAN T919 TELLI N449 GOTUB T447 INSAN |
| Aircraft | A320/M-SDE2E3FGIJ1LORWXYZ/HB1 |
Departure
| Time | N/A |
|---|---|
| Airport | Frankfurt Main Airport (EDDF) |
Arrival
| Time | 2026-04-27 17:41 |
|---|---|
| Airport | Heydar Aliyev International Airport (UBBB) |
| Time | Latitude | Longitude | Altitude | Speed | Heading |
|---|---|---|---|---|---|
| 2026-04-27 16:02 | 41.99175 | 35.65227 | 35921 ft | 468 kts | 95° |
| 2026-04-27 16:02 | 41.98930 | 35.69584 | 36197 ft | 467 kts | 95° |
| 2026-04-27 16:02 | 41.98680 | 35.73926 | 36470 ft | 467 kts | 95° |
| 2026-04-27 16:03 | 41.98425 | 35.78274 | 36740 ft | 466 kts | 95° |
| 2026-04-27 16:03 | 41.98169 | 35.82618 | 36992 ft | 466 kts | 95° |
| 2026-04-27 16:03 | 41.97917 | 35.86903 | 37216 ft | 466 kts | 95° |
| 2026-04-27 16:04 | 41.97399 | 35.95589 | 37276 ft | 466 kts | 95° |
| 2026-04-27 16:04 | 41.96879 | 36.04275 | 37275 ft | 466 kts | 95° |
| 2026-04-27 16:05 | 41.96355 | 36.12945 | 37274 ft | 465 kts | 95° |
| 2026-04-27 16:05 | 41.95823 | 36.21609 | 37275 ft | 465 kts | 95° |
| 2026-04-27 16:06 | 41.95288 | 36.30269 | 37264 ft | 465 kts | 95° |
| 2026-04-27 16:06 | 41.94744 | 36.38928 | 37278 ft | 465 kts | 95° |
| 2026-04-27 16:07 | 41.94187 | 36.47577 | 37275 ft | 465 kts | 95° |
| 2026-04-27 16:07 | 41.93626 | 36.56234 | 37275 ft | 465 kts | 95° |
| 2026-04-27 16:08 | 41.93065 | 36.64890 | 37292 ft | 465 kts | 95° |
| 2026-04-27 16:08 | 41.92501 | 36.73553 | 37271 ft | 466 kts | 96° |
| 2026-04-27 16:09 | 41.91923 | 36.82222 | 37266 ft | 466 kts | 96° |
| 2026-04-27 16:09 | 41.91034 | 36.95207 | 37277 ft | 466 kts | 96° |
| 2026-04-27 16:10 | 41.88069 | 37.11923 | 37267 ft | 461 kts | 115° |
| 2026-04-27 16:11 | 41.84327 | 37.23803 | 37283 ft | 460 kts | 115° |
| 2026-04-27 16:12 | 41.80597 | 37.35660 | 37280 ft | 460 kts | 115° |
| 2026-04-27 16:13 | 41.76837 | 37.47464 | 37278 ft | 459 kts | 115° |
| 2026-04-27 16:13 | 41.73074 | 37.59253 | 37280 ft | 459 kts | 115° |
| 2026-04-27 16:14 | 41.68060 | 37.74946 | 37281 ft | 458 kts | 115° |
| 2026-04-27 16:15 | 41.63024 | 37.90589 | 37280 ft | 458 kts | 115° |
| 2026-04-27 16:16 | 41.57974 | 38.06176 | 37289 ft | 456 kts | 115° |
| 2026-04-27 16:17 | 41.52938 | 38.21642 | 37300 ft | 455 kts | 115° |
| 2026-04-27 16:18 | 41.47883 | 38.37087 | 37307 ft | 453 kts | 115° |
| 2026-04-27 16:19 | 41.45768 | 38.43523 | 37306 ft | 452 kts | 116° |
| 2026-04-27 16:20 | 41.40712 | 38.58797 | 37295 ft | 451 kts | 116° |
| 2026-04-27 16:21 | 41.36899 | 38.70293 | 37296 ft | 450 kts | 116° |
| 2026-04-27 16:22 | 41.31864 | 38.85459 | 37284 ft | 449 kts | 115° |
| 2026-04-27 16:22 | 41.28153 | 38.96886 | 37280 ft | 448 kts | 115° |
| 2026-04-27 16:23 | 41.24422 | 39.08270 | 37287 ft | 448 kts | 115° |
| 2026-04-27 16:24 | 41.21910 | 39.15837 | 37288 ft | 447 kts | 115° |
| 2026-04-27 16:25 | 41.16729 | 39.30850 | 37294 ft | 447 kts | 117° |
| 2026-04-27 16:26 | 41.11456 | 39.45781 | 37305 ft | 447 kts | 116° |
| 2026-04-27 16:27 | 41.06209 | 39.60707 | 37306 ft | 447 kts | 116° |
| 2026-04-27 16:28 | 40.99969 | 39.79533 | 37290 ft | 448 kts | 104° |
| 2026-04-27 16:28 | 40.99348 | 39.87682 | 37288 ft | 449 kts | 92° |
| 2026-04-27 16:29 | 40.99052 | 40.00139 | 37280 ft | 450 kts | 92° |
| 2026-04-27 16:30 | 40.98620 | 40.16688 | 37278 ft | 450 kts | 92° |
| 2026-04-27 16:31 | 40.98076 | 40.37305 | 37273 ft | 449 kts | 92° |
| 2026-04-27 16:32 | 40.97710 | 40.49745 | 37272 ft | 449 kts | 93° |
| 2026-04-27 16:33 | 40.97350 | 40.62075 | 37278 ft | 449 kts | 93° |
| 2026-04-27 16:33 | 40.97101 | 40.70383 | 37281 ft | 449 kts | 93° |
| 2026-04-27 16:34 | 40.96839 | 40.78577 | 37268 ft | 449 kts | 93° |
| 2026-04-27 16:34 | 40.96571 | 40.86824 | 37265 ft | 448 kts | 93° |
| 2026-04-27 16:35 | 40.96304 | 40.95069 | 37260 ft | 448 kts | 93° |
| 2026-04-27 16:36 | 40.95892 | 41.07430 | 37253 ft | 448 kts | 94° |
| 2026-04-27 16:36 | 40.95603 | 41.15660 | 37246 ft | 448 kts | 94° |
| 2026-04-27 16:37 | 40.95315 | 41.23901 | 37258 ft | 448 kts | 93° |
| 2026-04-27 16:37 | 40.95025 | 41.32133 | 37228 ft | 448 kts | 94° |
| 2026-04-27 16:38 | 40.94720 | 41.40355 | 37235 ft | 448 kts | 94° |
| 2026-04-27 16:38 | 40.94405 | 41.48578 | 37227 ft | 447 kts | 94° |
| 2026-04-27 16:39 | 40.94094 | 41.56797 | 37229 ft | 447 kts | 94° |
| 2026-04-27 16:39 | 40.93781 | 41.65004 | 37214 ft | 447 kts | 94° |
| 2026-04-27 16:40 | 40.93452 | 41.73220 | 37217 ft | 447 kts | 94° |
| 2026-04-27 16:40 | 40.93125 | 41.81434 | 37206 ft | 447 kts | 94° |
| 2026-04-27 16:41 | 40.92792 | 41.89651 | 37216 ft | 448 kts | 95° |
| 2026-04-27 16:41 | 40.92450 | 41.97867 | 37207 ft | 447 kts | 95° |
| 2026-04-27 16:42 | 40.92102 | 42.06086 | 37208 ft | 448 kts | 95° |
| 2026-04-27 16:42 | 40.91746 | 42.14298 | 37194 ft | 448 kts | 95° |
| 2026-04-27 16:43 | 40.91384 | 42.22517 | 37192 ft | 448 kts | 95° |
| 2026-04-27 16:43 | 40.91016 | 42.30737 | 37184 ft | 448 kts | 95° |
| 2026-04-27 16:44 | 40.90640 | 42.38956 | 37191 ft | 448 kts | 95° |
| 2026-04-27 16:44 | 40.90257 | 42.47177 | 37183 ft | 448 kts | 95° |
| 2026-04-27 16:45 | 40.89880 | 42.55343 | 37176 ft | 448 kts | 95° |
| 2026-04-27 16:45 | 40.89495 | 42.63614 | 37178 ft | 448 kts | 96° |
| 2026-04-27 16:46 | 40.89098 | 42.71761 | 37180 ft | 448 kts | 96° |
| 2026-04-27 16:46 | 40.88695 | 42.79969 | 37170 ft | 447 kts | 96° |
| 2026-04-27 16:47 | 40.88294 | 42.88176 | 37173 ft | 447 kts | 96° |
| 2026-04-27 16:47 | 40.87881 | 42.96382 | 37145 ft | 448 kts | 96° |
| 2026-04-27 16:48 | 40.87462 | 43.04592 | 37146 ft | 448 kts | 96° |
| 2026-04-27 16:48 | 40.87033 | 43.12807 | 37143 ft | 448 kts | 96° |
| 2026-04-27 16:49 | 40.86383 | 43.25130 | 37131 ft | 448 kts | 96° |
| 2026-04-27 16:49 | 40.85945 | 43.33336 | 37132 ft | 448 kts | 96° |
| 2026-04-27 16:50 | 40.85501 | 43.41551 | 37132 ft | 448 kts | 96° |
| 2026-04-27 16:50 | 40.85052 | 43.49768 | 37130 ft | 449 kts | 96° |
| 2026-04-27 16:51 | 40.84596 | 43.57987 | 37133 ft | 449 kts | 96° |
| 2026-04-27 16:51 | 40.84133 | 43.66204 | 37139 ft | 448 kts | 98° |
| 2026-04-27 16:52 | 40.82771 | 43.74157 | 37116 ft | 444 kts | 109° |
| 2026-04-27 16:52 | 40.81036 | 43.81992 | 37117 ft | 445 kts | 109° |
| 2026-04-27 16:53 | 40.79294 | 43.89838 | 37120 ft | 446 kts | 109° |
| 2026-04-27 16:53 | 40.77559 | 43.97638 | 37122 ft | 446 kts | 109° |
| 2026-04-27 16:54 | 40.75798 | 44.05546 | 37110 ft | 446 kts | 110° |
| 2026-04-27 16:54 | 40.74046 | 44.13403 | 37081 ft | 447 kts | 110° |
| 2026-04-27 16:55 | 40.72285 | 44.21261 | 37101 ft | 447 kts | 110° |
| 2026-04-27 16:55 | 40.70519 | 44.29118 | 37077 ft | 447 kts | 110° |
| 2026-04-27 16:56 | 40.68744 | 44.36980 | 37043 ft | 448 kts | 110° |
| 2026-04-27 16:56 | 40.66961 | 44.44842 | 37052 ft | 448 kts | 110° |
| 2026-04-27 16:57 | 40.65171 | 44.52703 | 37031 ft | 448 kts | 110° |
| 2026-04-27 16:57 | 40.63376 | 44.60564 | 37034 ft | 448 kts | 110° |
| 2026-04-27 16:58 | 40.61573 | 44.68420 | 37030 ft | 448 kts | 110° |
| 2026-04-27 16:58 | 40.59783 | 44.76225 | 37014 ft | 449 kts | 110° |
| 2026-04-27 16:59 | 40.57972 | 44.84079 | 37018 ft | 449 kts | 111° |
| 2026-04-27 16:59 | 40.56144 | 44.91939 | 37021 ft | 449 kts | 111° |
| 2026-04-27 17:00 | 40.53399 | 45.03734 | 37014 ft | 450 kts | 111° |
| 2026-04-27 17:01 | 40.51567 | 45.11605 | 37018 ft | 451 kts | 111° |
| 2026-04-27 17:01 | 40.49722 | 45.19481 | 37023 ft | 451 kts | 111° |
| 2026-04-27 17:02 | 40.47871 | 45.27358 | 37028 ft | 451 kts | 111° |
| 2026-04-27 17:02 | 40.46016 | 45.35228 | 37017 ft | 451 kts | 111° |
| 2026-04-27 17:03 | 40.44149 | 45.43100 | 37024 ft | 452 kts | 111° |
| 2026-04-27 17:03 | 40.42279 | 45.50976 | 37027 ft | 452 kts | 111° |
| 2026-04-27 17:04 | 40.40401 | 45.58848 | 37031 ft | 452 kts | 112° |
| 2026-04-27 17:04 | 40.38970 | 45.65451 | 37027 ft | 456 kts | 104° |
| 2026-04-27 17:05 | 40.37855 | 45.75008 | 37036 ft | 456 kts | 102° |
| 2026-04-27 17:05 | 40.37053 | 45.81904 | 37037 ft | 457 kts | 102° |
| 2026-04-27 17:06 | 40.36087 | 45.90129 | 37040 ft | 456 kts | 103° |
| 2026-04-27 17:06 | 40.35111 | 45.98344 | 37037 ft | 456 kts | 103° |
| 2026-04-27 17:07 | 40.34130 | 46.06557 | 37023 ft | 456 kts | 103° |
| 2026-04-27 17:07 | 40.33148 | 46.14761 | 37031 ft | 456 kts | 103° |
| 2026-04-27 17:08 | 40.32161 | 46.22956 | 37017 ft | 456 kts | 103° |
| 2026-04-27 17:08 | 40.31162 | 46.31164 | 37012 ft | 456 kts | 103° |
| 2026-04-27 17:09 | 40.30155 | 46.39370 | 36985 ft | 457 kts | 103° |
| 2026-04-27 17:09 | 40.29145 | 46.47579 | 36989 ft | 456 kts | 103° |
| 2026-04-27 17:10 | 40.28127 | 46.55782 | 36990 ft | 456 kts | 103° |
| 2026-04-27 17:10 | 40.27117 | 46.63929 | 36978 ft | 456 kts | 103° |
| 2026-04-27 17:11 | 40.26088 | 46.72126 | 36972 ft | 456 kts | 103° |
| 2026-04-27 17:11 | 40.24537 | 46.84407 | 36973 ft | 456 kts | 103° |
| 2026-04-27 17:12 | 40.22977 | 46.96693 | 36961 ft | 456 kts | 103° |
| 2026-04-27 17:13 | 40.21935 | 47.04881 | 36965 ft | 456 kts | 103° |
| 2026-04-27 17:13 | 40.20874 | 47.13062 | 36936 ft | 456 kts | 103° |
| 2026-04-27 17:14 | 40.19807 | 47.21242 | 36944 ft | 456 kts | 103° |
| 2026-04-27 17:14 | 40.18746 | 47.29426 | 36949 ft | 456 kts | 103° |
| 2026-04-27 17:15 | 40.17680 | 47.37601 | 36953 ft | 456 kts | 103° |
| 2026-04-27 17:15 | 40.17056 | 47.45877 | 36959 ft | 461 kts | 91° |
| 2026-04-27 17:16 | 40.17212 | 47.54267 | 36942 ft | 462 kts | 91° |
| 2026-04-27 17:16 | 40.17286 | 47.58466 | 36834 ft | 463 kts | 92° |
| 2026-04-27 17:16 | 40.17355 | 47.62707 | 36044 ft | 468 kts | 92° |
| 2026-04-27 17:16 | 40.17424 | 47.66938 | 35540 ft | 463 kts | 92° |
| 2026-04-27 17:17 | 40.17495 | 47.71138 | 34980 ft | 461 kts | 92° |
| 2026-04-27 17:17 | 40.17561 | 47.75314 | 34416 ft | 458 kts | 92° |
| 2026-04-27 17:17 | 40.17625 | 47.79462 | 33836 ft | 456 kts | 92° |
| 2026-04-27 17:18 | 40.17749 | 47.87682 | 32720 ft | 448 kts | 92° |
| 2026-04-27 17:18 | 40.17804 | 47.91734 | 32172 ft | 444 kts | 92° |
| 2026-04-27 17:18 | 40.17856 | 47.95753 | 31621 ft | 440 kts | 91° |
| 2026-04-27 17:18 | 40.17904 | 47.99740 | 31095 ft | 437 kts | 91° |
| 2026-04-27 17:19 | 40.17953 | 48.03699 | 30581 ft | 434 kts | 91° |
| 2026-04-27 17:19 | 40.18002 | 48.07631 | 30074 ft | 431 kts | 91° |
| 2026-04-27 17:19 | 40.18049 | 48.11536 | 29488 ft | 428 kts | 91° |
| 2026-04-27 17:19 | 40.18096 | 48.15415 | 28906 ft | 425 kts | 91° |
| 2026-04-27 17:20 | 40.18145 | 48.19268 | 28333 ft | 422 kts | 91° |
| 2026-04-27 17:20 | 40.18191 | 48.23097 | 27783 ft | 420 kts | 91° |
| 2026-04-27 17:20 | 40.18235 | 48.26902 | 27236 ft | 417 kts | 91° |
| 2026-04-27 17:20 | 40.18276 | 48.30680 | 26636 ft | 416 kts | 91° |
| 2026-04-27 17:21 | 40.18314 | 48.34413 | 26075 ft | 415 kts | 91° |
| 2026-04-27 17:21 | 40.18351 | 48.38176 | 25567 ft | 412 kts | 91° |
| 2026-04-27 17:21 | 40.18387 | 48.41894 | 24846 ft | 406 kts | 91° |
| 2026-04-27 17:21 | 40.18423 | 48.45571 | 24070 ft | 402 kts | 91° |
| 2026-04-27 17:22 | 40.18454 | 48.49207 | 23320 ft | 397 kts | 91° |
| 2026-04-27 17:22 | 40.18485 | 48.52760 | 22790 ft | 384 kts | 91° |
| 2026-04-27 17:22 | 40.18514 | 48.56198 | 22304 ft | 373 kts | 91° |
| 2026-04-27 17:22 | 40.18541 | 48.59573 | 21834 ft | 371 kts | 91° |
| 2026-04-27 17:23 | 40.18567 | 48.62941 | 21361 ft | 370 kts | 91° |
| 2026-04-27 17:23 | 40.18591 | 48.66299 | 20896 ft | 369 kts | 91° |
| 2026-04-27 17:23 | 40.18617 | 48.69648 | 20430 ft | 368 kts | 91° |
| 2026-04-27 17:23 | 40.18643 | 48.72990 | 19964 ft | 367 kts | 91° |
| 2026-04-27 17:24 | 40.18665 | 48.76325 | 19506 ft | 366 kts | 91° |
| 2026-04-27 17:24 | 40.18686 | 48.79656 | 19050 ft | 366 kts | 91° |
| 2026-04-27 17:24 | 40.18708 | 48.82985 | 18587 ft | 366 kts | 91° |
| 2026-04-27 17:24 | 40.18609 | 48.86303 | 18131 ft | 364 kts | 99° |
| 2026-04-27 17:25 | 40.18129 | 48.89534 | 17696 ft | 361 kts | 103° |
| 2026-04-27 17:25 | 40.17628 | 48.92734 | 17269 ft | 358 kts | 103° |
| 2026-04-27 17:25 | 40.17138 | 48.95907 | 16850 ft | 355 kts | 103° |
| 2026-04-27 17:25 | 40.16652 | 48.99058 | 16450 ft | 353 kts | 103° |
| 2026-04-27 17:26 | 40.16168 | 49.02188 | 16053 ft | 350 kts | 103° |
| 2026-04-27 17:26 | 40.15685 | 49.05298 | 15660 ft | 348 kts | 103° |
| 2026-04-27 17:26 | 40.15200 | 49.08392 | 15268 ft | 346 kts | 103° |
| 2026-04-27 17:26 | 40.14715 | 49.11457 | 14880 ft | 344 kts | 103° |
| 2026-04-27 17:27 | 40.14233 | 49.14512 | 14492 ft | 342 kts | 103° |
| 2026-04-27 17:27 | 40.13754 | 49.17553 | 14099 ft | 341 kts | 103° |
| 2026-04-27 17:27 | 40.13276 | 49.20582 | 13705 ft | 340 kts | 103° |
| 2026-04-27 17:27 | 40.12799 | 49.23596 | 13297 ft | 337 kts | 103° |
| 2026-04-27 17:28 | 40.12327 | 49.26584 | 12898 ft | 334 kts | 103° |
| 2026-04-27 17:28 | 40.11859 | 49.29545 | 12512 ft | 331 kts | 103° |
| 2026-04-27 17:28 | 40.11701 | 49.35499 | 11726 ft | 328 kts | 85° |
| 2026-04-27 17:29 | 40.11863 | 49.38466 | 11327 ft | 327 kts | 86° |
| 2026-04-27 17:29 | 40.12106 | 49.41402 | 11072 ft | 320 kts | 76° |
| 2026-04-27 17:29 | 40.12791 | 49.44099 | 11005 ft | 306 kts | 68° |
| 2026-04-27 17:29 | 40.13502 | 49.46676 | 10923 ft | 299 kts | 68° |
| 2026-04-27 17:30 | 40.14206 | 49.49210 | 10863 ft | 295 kts | 68° |
| 2026-04-27 17:30 | 40.15611 | 49.54229 | 10494 ft | 296 kts | 67° |
| 2026-04-27 17:30 | 40.16321 | 49.56762 | 10105 ft | 297 kts | 68° |
| 2026-04-27 17:31 | 40.17031 | 49.59301 | 9691 ft | 298 kts | 66° |
| 2026-04-27 17:31 | 40.17741 | 49.61849 | 9230 ft | 299 kts | 69° |
| 2026-04-27 17:31 | 40.18446 | 49.64390 | 8880 ft | 296 kts | 67° |
| 2026-04-27 17:31 | 40.19147 | 49.66924 | 8408 ft | 298 kts | 67° |
| 2026-04-27 17:32 | 40.19853 | 49.69475 | 7951 ft | 298 kts | 68° |
| 2026-04-27 17:32 | 40.21251 | 49.74533 | 7113 ft | 296 kts | 69° |
| 2026-04-27 17:32 | 40.21951 | 49.77062 | 6698 ft | 294 kts | 69° |
| 2026-04-27 17:33 | 40.22647 | 49.79580 | 6223 ft | 294 kts | 68° |
| 2026-04-27 17:33 | 40.23335 | 49.82067 | 5888 ft | 288 kts | 68° |
| 2026-04-27 17:33 | 40.24010 | 49.84522 | 5333 ft | 285 kts | 67° |
| 2026-04-27 17:33 | 40.24677 | 49.86952 | 4732 ft | 280 kts | 64° |
| 2026-04-27 17:34 | 40.25330 | 49.89333 | 4237 ft | 277 kts | 64° |
| 2026-04-27 17:34 | 40.25983 | 49.91704 | 3775 ft | 276 kts | 60° |
| 2026-04-27 17:34 | 40.26614 | 49.94012 | 3655 ft | 260 kts | 60° |
| 2026-04-27 17:34 | 40.27199 | 49.96175 | 3559 ft | 245 kts | 60° |
| 2026-04-27 17:35 | 40.27751 | 49.98216 | 3457 ft | 231 kts | 59° |
| 2026-04-27 17:35 | 40.28274 | 50.00144 | 3355 ft | 219 kts | 60° |
| 2026-04-27 17:35 | 40.28603 | 50.02106 | 3117 ft | 223 kts | 69° |
| 2026-04-27 17:35 | 40.28892 | 50.04048 | 2962 ft | 204 kts | 57° |
| 2026-04-27 17:36 | 40.29490 | 50.05594 | 2933 ft | 180 kts | 40° |
| 2026-04-27 17:36 | 40.30302 | 50.06736 | 2871 ft | 164 kts | 25° |
| 2026-04-27 17:36 | 40.31229 | 50.07490 | 2771 ft | 152 kts | 13° |
| 2026-04-27 17:36 | 40.32205 | 50.07888 | 2641 ft | 143 kts | 1° |
| 2026-04-27 17:37 | 40.33168 | 50.07961 | 2495 ft | 136 kts | 351° |
| 2026-04-27 17:37 | 40.34078 | 50.07748 | 2350 ft | 129 kts | 344° |
| 2026-04-27 17:37 | 40.34916 | 50.07487 | 2176 ft | 121 kts | 344° |
| 2026-04-27 17:37 | 40.35724 | 50.07235 | 2002 ft | 118 kts | 343° |
| 2026-04-27 17:38 | 40.36520 | 50.06986 | 1851 ft | 117 kts | 343° |
| 2026-04-27 17:38 | 40.37308 | 50.06740 | 1702 ft | 117 kts | 343° |
| 2026-04-27 17:38 | 40.38096 | 50.06493 | 1533 ft | 116 kts | 344° |
| 2026-04-27 17:38 | 40.38882 | 50.06247 | 1388 ft | 117 kts | 345° |
| 2026-04-27 17:39 | 40.39671 | 50.06000 | 1220 ft | 116 kts | 345° |
| 2026-04-27 17:39 | 40.40453 | 50.05755 | 1061 ft | 115 kts | 346° |
| 2026-04-27 17:39 | 40.41231 | 50.05511 | 903 ft | 117 kts | 345° |
| 2026-04-27 17:39 | 40.42025 | 50.05262 | 743 ft | 116 kts | 345° |
| 2026-04-27 17:40 | 40.42825 | 50.05015 | 588 ft | 124 kts | 343° |
| 2026-04-27 17:40 | 40.43638 | 50.04757 | 401 ft | 119 kts | 342° |
| 2026-04-27 17:40 | 40.44418 | 50.04500 | 270 ft | 116 kts | 345° |
| 2026-04-27 17:40 | 40.45192 | 50.04275 | 139 ft | 113 kts | 343° |
| 2026-04-27 17:41 | 40.45941 | 50.04035 | 16 ft | 104 kts | 342° |
| 2026-04-27 17:41 | 40.46533 | 50.03848 | 10 ft | 65 kts | 347° |
| 2026-04-27 17:41 | 40.46837 | 50.03752 | 10 ft | 34 kts | 346° |
| 2026-04-27 17:41 | 40.47010 | 50.03694 | 13 ft | 22 kts | 344° |
| 2026-04-27 17:42 | 40.47147 | 50.03653 | 13 ft | 19 kts | 347° |
| 2026-04-27 17:42 | 40.47272 | 50.03614 | 14 ft | 18 kts | 346° |
| 2026-04-27 17:42 | 40.47390 | 50.03575 | 13 ft | 17 kts | 350° |
| 2026-04-27 17:42 | 40.47506 | 50.03542 | 13 ft | 17 kts | 347° |
| 2026-04-27 17:43 | 40.47628 | 50.03508 | 12 ft | 18 kts | 0° |
| 2026-04-27 17:43 | 40.47665 | 50.03630 | 14 ft | 16 kts | 121° |
| 2026-04-27 17:43 | 40.47569 | 50.03659 | 13 ft | 14 kts | 179° |
| 2026-04-27 17:43 | 40.47479 | 50.03699 | 14 ft | 14 kts | 159° |
| 2026-04-27 17:44 | 40.47395 | 50.03741 | 15 ft | 12 kts | 159° |
| 2026-04-27 17:44 | 40.47316 | 50.03780 | 15 ft | 13 kts | 159° |
| 2026-04-27 17:44 | 40.47227 | 50.03823 | 14 ft | 13 kts | 160° |
| 2026-04-27 17:44 | 40.47139 | 50.03866 | 14 ft | 15 kts | 160° |
| 2026-04-27 17:45 | 40.47024 | 50.03922 | 14 ft | 21 kts | 158° |
| 2026-04-27 17:45 | 40.46907 | 50.03981 | 14 ft | 13 kts | 159° |
| 2026-04-27 17:45 | 40.46802 | 50.04031 | 14 ft | 19 kts | 161° |
| 2026-04-27 17:45 | 40.46670 | 50.04094 | 14 ft | 18 kts | 160° |
| 2026-04-27 17:46 | 40.46560 | 50.04170 | 14 ft | 19 kts | 131° |
| 2026-04-27 17:46 | 40.46539 | 50.04350 | 15 ft | 22 kts | 91° |
| 2026-04-27 17:46 | 40.46545 | 50.04550 | 15 ft | 22 kts | 89° |
| 2026-04-27 17:46 | 40.46549 | 50.04722 | 15 ft | 15 kts | 88° |
| 2026-04-27 17:47 | 40.46552 | 50.04854 | 15 ft | 14 kts | 88° |
| 2026-04-27 17:47 | 40.46549 | 50.04922 | 15 ft | 10 kts | 108° |
| 2026-04-27 17:47 | 40.46532 | 50.05039 | 15 ft | 11 kts | 64° |
| 2026-04-27 17:47 | 40.46552 | 50.05088 | 15 ft | 1 kts | 64° |
| 2026-04-27 17:48 | 40.46553 | 50.05092 | 15 ft | 0 kts | 64° |